Ride Results

NWEC 100 Miler 2009 (25-04-2009)
Ride distance: 160.0 km

Outcomes - NWEC 100 Miler 2009 (25-04-2009)
Division No. of Entries Retired / DNE Completed Withdrawn Ineligible V/O Percentage Completed
HW 2 - 1 - - 1 50.00%
MW 9 - 7 - - 2 77.78%
LW 6 - 6 - - - 100.00%
JN 3 - 3 - - - 100.00%
Totals 20 - 17 - - 3 85.00%
Results - NWEC 100 Miler 2009 (25-04-2009)
No. Rider Horse Place Time Leg Speeds Total
Km/Hr
H/R bpm
Heavyweight
45 Denise Williams Valley Springs Summer Haze 1 (BC) 11:11:00 15.7, 15.1, 14.6, 12.1, 13.3 14.31 44, 50, 52, 53, 55, 52 (Avg:52)
140 Stuart King Davlyn Park Apache Lame L2 0:00:00 15.6, 13.6 - 32, 47, 50 (Avg:48)
Middleweight
38 Tony Purton Beer Street Tiger Lily 1 (BC) 10:06:00 17.2, 16.6, 15.5, 13.7, 15.7 15.84 44, 46, 48, 52, 52, 50 (Avg:49)
113 Steve Blackhurst Sandine Allure 2 11:03:00 16.9, 16.1, 13.3, 12.8, 12.3 14.48 40, 43, 48, 47, 52, 53 (Avg:48)
160 Stacey Dodd Deneldan Sharday 3 11:12:00 16.6, 15.2, 13.5, 11.9, 13.7 14.29 36, 43, 50, 46, 48, 48 (Avg:47)
88 Anthony Bloom Kerribea 4 11:24:00 15.7, 13.5, 13.5, 12.4, 15.3 14.04 36, 47, 46, 50, 58, 49 (Avg:50)
57 Tania Jago River Gum Bounty 5 13:15:00 14.4, 13.5, 11.3, 9.1, 12.4 12.08 36, 46, 52, 58, 50, 43 (Avg:49)
102 Keryn Mahoney Teco 6 15:49:00 11.6, 10.2, 10.2, 8.0, 11.1 10.12 41, 50, 52, 51, 51, 50 (Avg:50)
69 Tracey Wyllie At Cash 6 15:49:00 11.6, 10.2, 10.1, 8.0, 11.1 10.12 41, 42, 51, 46, 46, 42 (Avg:45)
186 Erin Gadsby Sheikh Lame L4 0:00:00 11.9, 11.8, 11.6, 6.6 - 43, 52, 48, 55, 53 (Avg:52)
43 Bonny Burgess Rythem Lame L2 0:00:00 11.6, 12.6 - 33, 41, 50 (Avg:45)
Lightweight
12 Anita Hutchins Malricia Jess 1 (BC) 10:06:00 16.5, 16.1, 17.1, 13.7, 15.7 15.84 44, 41, 44, 48, 47, 48 (Avg:45)
77 Alison Lockhart Daarsoto 2 11:12:00 16.7, 15.1, 13.6, 11.8, 13.7 14.29 37, 50, 51, 58, 58, 57 (Avg:54)
199 Phoebe Harper Banks Enderby Rakaia 3 12:26:00 14.8, 14.2, 12.0, 10.8, 11.8 12.87 40, 44, 48, 52, 51, 48 (Avg:48)
136 Kaye Mitchell Krystal Creek Karisma 3 12:26:00 14.8, 14.2, 12.0, 10.8, 11.8 12.87 40, 46, 52, 54, 50, 54 (Avg:51)
1 Ann Richards Middleton's Rousabout 5 15:47:00 11.6, 10.2, 10.2, 8.0, 11.3 10.14 38, 41, 42, 36, 41, 38 (Avg:39)
117 Penny Lasdauskas Winston 6 15:48:00 11.9, 11.8, 8.9, 7.5, 11.3 10.13 35, 41, 55, 52, 48, 48 (Avg:48)
Junior
79 Shannon Hill Glendhu Judah 1 (BC) 11:03:00 16.9, 16.1, 13.3, 12.8, 12.3 14.48 31, 43, 48, 50, 56, 52 (Avg:49)
78 Brad Hill Orabanda Dancing Silhouette 2 11:12:00 16.9, 15.0, 13.6, 11.8, 13.7 14.29 40, 45, 48, 48, 46, 51 (Avg:47)
5 Kelsey Webb Lauralyn Waseem 3 15:48:00 11.6, 10.2, 10.2, 8.0, 11.2 10.13 38, 44, 48, 48, 46, 45 (Avg:46)